Fire Weather Observation
Issued by NWS Grand Junction, CO

Home | Current Version | Previous Version | Text Only | Print | Product List | Glossary Off
Versions: 1 2 3 4 5 6 7 8 9 10 11 12 13 14 15 16 17 18 19 20 21 22 23 24 25 26 27 28 29 30 31 32 33 34 35 36 37 38 39 40 41 42 43 44 45 46 47 48 49 50

535
SHUS65 KGJT 202015
FWOGJT

DAILY FIRE WEATHER OBSERVATION
NATIONAL WEATHER SERVICE GRAND JUNCTION CO
212 PM MDT FRI MAY 20 2016

STATE OF THE WEATHER (W)               2
DRY BULB TEMPERATURE                   77   DEGREES FAHRENHEIT
RELATIVE HUMIDITY (RH)                 21   PERCENT
LIGHTNING ACTIVITY LEVEL
  (LAL - MIDNIGHT TO 2 PM)             1
WIND DIRECTION                         180  DEGREES (C IF CALM)
WIND SPEED                             18   MPH
MAX TEMP (2 PM - 2 PM)                 78   DEGREES FAHRENHEIT
MIN TEMP (2 PM - 2 PM)                 59   DEGREES FAHRENHEIT
MAX RH (2 PM - 2 PM)                   46   PERCENT
MIN RH (2 PM - 2 PM)                   21   PERCENT
PCPN DURATION                          0.0  HOURS
PCPN AMT (2 PM - 2 PM)                 0.0  INCHES
LAL (2 PM - 2 PM)                      1

$$

METAR KGJT 201953Z 19016G28KT 10SM CLR 25/01 A2982 RMK AO2 PK
      WND 20031/1857 SLP031 T02500011



USA.gov is the U.S. government's official web portal to all federal, state and local government web resources and services.